createdAt,value
2023-09-24T00:01:00.135Z,2.77
2023-09-24T00:03:27.639Z,2.77
2023-09-24T00:05:54.704Z,2.90
2023-09-24T00:08:22.224Z,2.97
2023-09-24T00:10:54.075Z,2.93
2023-09-24T00:13:23.018Z,2.70
2023-09-24T00:15:51.277Z,2.67
2023-09-24T00:18:19.124Z,2.70
2023-09-24T00:20:45.904Z,2.90
2023-09-24T00:23:12.782Z,2.87
2023-09-24T00:25:39.471Z,2.87
2023-09-24T00:28:06.228Z,2.80
2023-09-24T00:30:35.380Z,3.03
2023-09-24T00:33:02.299Z,3.03
2023-09-24T00:35:31.325Z,2.67
2023-09-24T00:37:58.225Z,2.50
2023-09-24T00:40:24.976Z,2.53
2023-09-24T00:42:51.788Z,2.50
2023-09-24T00:45:18.506Z,2.50
2023-09-24T00:47:46.715Z,2.70
2023-09-24T00:50:14.960Z,2.70
2023-09-24T00:52:43.842Z,2.60
2023-09-24T00:55:12.742Z,3.00
2023-09-24T00:57:40.175Z,2.57
2023-09-24T01:00:12.442Z,3.00
2023-09-24T01:02:43.002Z,2.67
2023-09-24T01:05:10.510Z,2.57
2023-09-24T01:07:38.550Z,3.20
2023-09-24T01:10:12.210Z,3.00
2023-09-24T01:12:42.288Z,2.57
2023-09-24T01:15:14.671Z,2.87
2023-09-24T01:17:41.728Z,2.50
2023-09-24T01:20:14.639Z,2.70
2023-09-24T01:22:41.983Z,3.10
2023-09-24T01:25:09.223Z,2.73
2023-09-24T01:27:36.623Z,2.83
2023-09-24T01:30:07.268Z,2.80
2023-09-24T01:32:34.234Z,2.53
2023-09-24T01:35:04.589Z,2.73
2023-09-24T01:37:35.051Z,2.63
2023-09-24T01:40:16.849Z,2.87
2023-09-24T01:42:43.574Z,2.90
2023-09-24T01:45:11.553Z,2.80
2023-09-24T01:47:38.438Z,3.10
2023-09-24T01:50:08.314Z,3.17
2023-09-24T01:52:36.517Z,3.20
2023-09-24T01:55:03.539Z,3.13
2023-09-24T01:57:30.971Z,2.70
2023-09-24T01:59:58.022Z,2.93
2023-09-24T02:02:24.863Z,2.97
2023-09-24T02:04:51.714Z,3.17
2023-09-24T02:07:18.375Z,2.77
2023-09-24T02:09:45.096Z,2.80
2023-09-24T02:12:14.037Z,3.10
2023-09-24T02:14:40.843Z,3.60
2023-09-24T02:17:07.635Z,3.20
2023-09-24T02:19:34.348Z,3.07
2023-09-24T02:22:01.161Z,3.63
2023-09-24T02:24:27.924Z,3.10
2023-09-24T02:26:54.639Z,3.03
2023-09-24T02:29:21.470Z,2.90
2023-09-24T02:31:53.300Z,3.00
2023-09-24T02:34:20.078Z,2.90
2023-09-24T02:36:46.854Z,3.27
2023-09-24T02:39:13.640Z,3.07
2023-09-24T02:41:42.443Z,3.57
2023-09-24T02:44:09.178Z,3.63
2023-09-24T02:46:36.166Z,5.73
2023-09-24T02:49:04.098Z,6.47
2023-09-24T02:51:30.855Z,5.57
2023-09-24T02:53:57.643Z,4.40
2023-09-24T02:56:24.427Z,3.90
2023-09-24T02:58:51.154Z,3.47
2023-09-24T03:01:21.188Z,2.73
2023-09-24T03:03:48.277Z,2.83
2023-09-24T03:06:15.231Z,2.73
2023-09-24T03:08:42.109Z,2.50
2023-09-24T03:11:15.629Z,3.50
2023-09-24T03:13:43.451Z,3.20
2023-09-24T03:16:10.248Z,3.20
2023-09-24T03:18:37.161Z,3.40
2023-09-24T03:21:07.539Z,3.60
2023-09-24T03:23:35.193Z,3.60
2023-09-24T03:26:01.986Z,3.43
2023-09-24T03:28:29.081Z,3.83
2023-09-24T03:30:55.870Z,3.60
2023-09-24T03:33:22.762Z,3.63
2023-09-24T03:35:50.452Z,3.30
2023-09-24T03:38:17.828Z,3.23
2023-09-24T03:40:44.548Z,3.10
2023-09-24T03:43:11.303Z,3.00
2023-09-24T03:45:38.158Z,3.20
2023-09-24T03:48:05.317Z,2.80
2023-09-24T03:50:32.103Z,2.50
2023-09-24T03:53:00.636Z,3.10
2023-09-24T03:55:28.307Z,2.83
2023-09-24T03:57:55.446Z,3.27
2023-09-24T04:00:23.282Z,3.10
2023-09-24T04:02:51.785Z,3.20
2023-09-24T04:05:23.960Z,3.30
2023-09-24T04:07:55.969Z,3.20
2023-09-24T04:10:25.247Z,3.47
2023-09-24T04:12:52.683Z,3.47
2023-09-24T04:15:23.063Z,3.60
2023-09-24T04:17:50.701Z,3.83
2023-09-24T04:20:20.905Z,3.30
2023-09-24T04:22:48.490Z,4.10
2023-09-24T04:25:16.802Z,4.23
2023-09-24T04:27:43.854Z,4.10
2023-09-24T04:30:16.499Z,3.40
2023-09-24T04:32:54.310Z,3.27
2023-09-24T04:35:22.185Z,3.57
2023-09-24T04:37:50.302Z,3.90
2023-09-24T04:40:17.420Z,3.40
2023-09-24T04:42:46.368Z,3.30
2023-09-24T04:45:14.242Z,3.43
2023-09-24T04:47:42.630Z,3.10
2023-09-24T04:50:14.432Z,3.30
2023-09-24T04:52:43.601Z,3.20
2023-09-24T04:55:10.696Z,3.10
2023-09-24T04:57:37.682Z,3.40
2023-09-24T05:00:05.675Z,3.10
2023-09-24T05:02:32.608Z,3.40
2023-09-24T05:04:59.566Z,2.97
2023-09-24T05:07:26.762Z,3.00
2023-09-24T05:09:53.644Z,2.83
2023-09-24T05:12:20.720Z,3.20
2023-09-24T05:14:47.614Z,2.70
2023-09-24T05:17:14.433Z,2.67
2023-09-24T05:19:41.150Z,2.80
2023-09-24T05:22:08.993Z,2.83
2023-09-24T05:24:36.175Z,2.80
2023-09-24T05:27:03.156Z,3.30
2023-09-24T05:29:29.948Z,3.20
2023-09-24T05:31:56.999Z,2.90
2023-09-24T05:34:24.334Z,3.40
2023-09-24T05:36:51.371Z,2.47
2023-09-24T05:39:18.079Z,3.23
2023-09-24T05:41:45.355Z,2.93
2023-09-24T05:44:13.219Z,3.20
2023-09-24T05:46:40.168Z,3.33
2023-09-24T05:49:06.880Z,3.17
2023-09-24T05:51:33.617Z,3.20
2023-09-24T05:54:00.414Z,2.90
2023-09-24T05:56:27.620Z,2.90
2023-09-24T05:58:57.516Z,2.83
2023-09-24T06:01:24.502Z,2.60
2023-09-24T06:03:51.650Z,2.77
2023-09-24T06:06:18.708Z,3.13
2023-09-24T06:08:45.553Z,2.80
2023-09-24T06:11:12.513Z,2.90
2023-09-24T06:13:39.623Z,2.97
2023-09-24T06:16:07.547Z,2.33
2023-09-24T06:18:34.468Z,2.50
2023-09-24T06:21:03.881Z,3.00
2023-09-24T06:23:32.106Z,2.70
2023-09-24T06:25:59.776Z,2.67
2023-09-24T06:28:27.441Z,2.60
2023-09-24T06:31:01.437Z,2.07
2023-09-24T06:33:28.791Z,2.17
2023-09-24T06:35:56.170Z,2.20
2023-09-24T06:38:23.145Z,2.40
2023-09-24T06:41:03.727Z,2.47
2023-09-24T06:43:31.530Z,2.30
2023-09-24T06:45:58.512Z,2.20
2023-09-24T06:48:26.609Z,2.53
2023-09-24T06:50:57.145Z,2.10
2023-09-24T06:53:24.556Z,2.40
2023-09-24T06:55:51.379Z,2.40
2023-09-24T06:58:18.129Z,2.60
2023-09-24T07:00:44.810Z,2.50
2023-09-24T07:03:11.790Z,2.40
2023-09-24T07:05:38.754Z,3.20
2023-09-24T07:08:06.136Z,3.25
2023-09-24T07:10:33.206Z,3.30
2023-09-24T07:13:00.105Z,3.92
2023-09-24T07:15:26.856Z,3.42
2023-09-24T07:17:54.747Z,3.50
2023-09-24T07:20:21.980Z,2.67
2023-09-24T07:22:48.805Z,3.47
2023-09-24T07:25:15.671Z,3.80
2023-09-24T07:27:42.870Z,3.20
2023-09-24T07:30:10.553Z,3.70
2023-09-24T07:32:38.635Z,3.80
2023-09-24T07:35:06.517Z,3.45
2023-09-24T07:37:33.229Z,3.38
2023-09-24T07:40:00.046Z,3.40
2023-09-24T07:42:26.874Z,3.20
2023-09-24T07:44:54.190Z,3.67
2023-09-24T07:47:21.014Z,3.88
2023-09-24T07:49:47.840Z,3.67
2023-09-24T07:52:15.521Z,3.20
2023-09-24T07:54:42.490Z,2.92
2023-09-24T07:57:09.332Z,3.15
2023-09-24T07:59:36.249Z,2.80
2023-09-24T08:02:03.515Z,2.85
2023-09-24T08:04:30.307Z,3.47
2023-09-24T08:06:57.347Z,3.30
2023-09-24T08:09:27.608Z,3.78
2023-09-24T08:11:56.054Z,3.42
2023-09-24T08:14:23.455Z,3.00
2023-09-24T08:16:51.507Z,3.25
2023-09-24T08:19:18.606Z,3.22
2023-09-24T08:21:45.347Z,3.45
2023-09-24T08:24:12.148Z,3.33
2023-09-24T08:26:38.963Z,3.47
2023-09-24T08:29:07.891Z,3.45
2023-09-24T08:31:36.064Z,2.92
2023-09-24T08:34:04.585Z,2.85
2023-09-24T08:36:31.414Z,2.97
2023-09-24T08:38:58.486Z,2.70
2023-09-24T08:41:25.860Z,2.95
2023-09-24T08:43:56.936Z,3.17
2023-09-24T08:46:25.317Z,3.10
2023-09-24T08:48:53.803Z,3.35
2023-09-24T08:51:21.634Z,2.88
2023-09-24T08:53:48.605Z,2.20
2023-09-24T08:56:17.098Z,2.15
2023-09-24T08:58:44.764Z,2.25
2023-09-24T09:01:12.905Z,2.20
2023-09-24T09:03:41.137Z,2.10
2023-09-24T09:06:08.485Z,2.10
2023-09-24T09:08:55.987Z,2.08
2023-09-24T09:11:38.099Z,1.85
2023-09-24T09:14:05.037Z,1.45
2023-09-24T09:16:32.584Z,1.30
2023-09-24T09:19:01.519Z,1.55
2023-09-24T09:21:29.100Z,1.00
2023-09-24T09:23:56.617Z,1.10
2023-09-24T09:26:34.548Z,1.00
2023-09-24T09:29:05.220Z,1.20
2023-09-24T09:31:32.256Z,1.02
2023-09-24T09:34:07.549Z,1.27
2023-09-24T09:36:35.853Z,1.00
2023-09-24T09:39:04.252Z,1.00
2023-09-24T09:41:34.168Z,1.00
2023-09-24T09:44:08.493Z,1.02
2023-09-24T09:46:38.641Z,1.10
2023-09-24T09:49:10.684Z,1.10
2023-09-24T09:51:49.677Z,1.05
2023-09-24T09:54:18.556Z,1.25
2023-09-24T09:56:45.682Z,1.10
2023-09-24T09:59:12.526Z,1.05
2023-09-24T10:01:39.390Z,0.88
2023-09-24T10:04:08.119Z,0.80
2023-09-24T10:06:39.262Z,0.95
2023-09-24T10:09:28.132Z,0.60
2023-09-24T10:11:57.569Z,0.60
2023-09-24T10:14:36.496Z,0.63
2023-09-24T10:17:24.525Z,0.77
2023-09-24T10:20:07.837Z,0.70
2023-09-24T10:22:36.174Z,0.60
2023-09-24T10:25:31.865Z,0.60
2023-09-24T10:28:16.484Z,0.80
2023-09-24T10:31:05.771Z,0.95
2023-09-24T10:33:55.118Z,0.80
2023-09-24T10:36:24.097Z,1.17
2023-09-24T10:39:11.851Z,0.70
2023-09-24T10:42:10.643Z,0.93
2023-09-24T10:44:38.621Z,0.60
2023-09-24T10:47:29.116Z,0.82
2023-09-24T10:50:17.776Z,0.70
2023-09-24T10:53:00.114Z,0.73
2023-09-24T10:55:36.079Z,0.85
2023-09-24T10:58:02.939Z,0.63
2023-09-24T11:00:31.090Z,0.77
2023-09-24T11:03:03.407Z,0.60
2023-09-24T11:05:34.470Z,0.70
2023-09-24T11:08:01.167Z,0.70
2023-09-24T11:10:28.140Z,0.63
2023-09-24T11:12:56.408Z,0.80
2023-09-24T11:15:25.247Z,0.80
2023-09-24T11:17:52.812Z,0.65
2023-09-24T11:20:22.148Z,0.80
2023-09-24T11:23:12.607Z,0.85
2023-09-24T11:25:40.198Z,0.90
2023-09-24T11:28:07.409Z,0.80
2023-09-24T11:30:49.011Z,0.70
2023-09-24T11:33:17.441Z,0.75
2023-09-24T11:35:45.872Z,0.90
2023-09-24T11:38:13.081Z,0.60
2023-09-24T11:40:42.067Z,0.70
2023-09-24T11:43:13.711Z,0.82
2023-09-24T11:45:49.862Z,0.80
2023-09-24T11:48:25.908Z,0.90
2023-09-24T11:50:54.574Z,0.90
2023-09-24T11:53:24.684Z,0.80
2023-09-24T11:55:54.361Z,0.70
2023-09-24T11:58:23.180Z,0.88
2023-09-24T12:00:50.009Z,0.73
2023-09-24T12:03:17.077Z,0.77
2023-09-24T12:05:44.120Z,1.05
2023-09-24T12:08:11.290Z,0.90
2023-09-24T12:10:42.944Z,0.70
2023-09-24T12:13:10.970Z,1.00
2023-09-24T12:15:38.761Z,1.20
2023-09-24T12:18:07.254Z,1.30
2023-09-24T12:20:35.703Z,1.02
2023-09-24T12:23:07.385Z,3.88
2023-09-24T12:25:39.448Z,1.60
2023-09-24T12:28:12.914Z,1.40
2023-09-24T12:30:39.909Z,1.58
2023-09-24T12:33:10.534Z,1.65
2023-09-24T12:35:41.224Z,1.15
2023-09-24T12:38:08.142Z,1.23
2023-09-24T12:40:35.051Z,1.27
2023-09-24T12:43:01.827Z,1.27
2023-09-24T12:45:28.718Z,1.17
2023-09-24T12:47:55.583Z,1.23
2023-09-24T12:50:22.429Z,1.15
2023-09-24T12:52:49.453Z,1.45
2023-09-24T12:55:17.561Z,1.17
2023-09-24T12:57:45.603Z,1.50
2023-09-24T13:00:13.585Z,1.45
2023-09-24T13:02:42.767Z,1.50
2023-09-24T13:05:11.286Z,1.40
2023-09-24T13:07:40.102Z,1.17
2023-09-24T13:10:07.947Z,1.25
2023-09-24T13:12:34.940Z,1.40
2023-09-24T13:15:02.386Z,1.40
2023-09-24T13:17:30.188Z,1.50
2023-09-24T13:19:57.017Z,1.50
2023-09-24T13:22:23.744Z,1.60
2023-09-24T13:24:50.596Z,1.50
2023-09-24T13:27:17.428Z,1.40
2023-09-24T13:29:44.425Z,1.57
2023-09-24T13:32:12.964Z,1.43
2023-09-24T13:34:39.934Z,1.53
2023-09-24T13:37:06.754Z,1.47
2023-09-24T13:39:33.494Z,1.40
2023-09-24T13:42:00.474Z,1.80
2023-09-24T13:44:27.351Z,1.60
2023-09-24T13:46:54.393Z,1.50
2023-09-24T13:49:21.279Z,1.70
2023-09-24T13:51:50.799Z,1.60
2023-09-24T13:54:17.619Z,1.60
2023-09-24T13:56:44.677Z,1.80
2023-09-24T13:59:12.923Z,1.60
2023-09-24T14:01:39.737Z,1.63
2023-09-24T14:04:06.726Z,1.50
2023-09-24T14:06:33.547Z,1.70
2023-09-24T14:09:19.128Z,2.10
2023-09-24T14:12:04.729Z,1.97
2023-09-24T14:14:31.449Z,1.63
2023-09-24T14:16:58.153Z,1.50
2023-09-24T14:19:24.938Z,1.50
2023-09-24T14:21:51.784Z,1.57
2023-09-24T14:24:18.570Z,1.70
2023-09-24T14:26:45.339Z,1.80
2023-09-24T14:29:12.099Z,1.33
2023-09-24T14:31:38.915Z,1.67
2023-09-24T14:34:05.709Z,1.80
2023-09-24T14:36:32.379Z,1.57
2023-09-24T14:39:03.458Z,1.50
2023-09-24T14:41:31.540Z,1.67
2023-09-24T14:43:59.226Z,1.50
2023-09-24T14:46:27.665Z,1.70
2023-09-24T14:48:54.625Z,1.50
2023-09-24T14:51:21.649Z,1.43
2023-09-24T14:53:49.092Z,1.53
2023-09-24T14:56:21.663Z,1.70
2023-09-24T14:58:48.528Z,2.00
2023-09-24T15:01:15.634Z,1.60
2023-09-24T15:03:42.670Z,1.50
2023-09-24T15:06:09.789Z,1.40
2023-09-24T15:08:37.194Z,1.30
2023-09-24T15:11:05.964Z,1.47
2023-09-24T15:13:33.822Z,1.57
2023-09-24T15:16:00.841Z,1.50
2023-09-24T15:18:27.737Z,1.40
2023-09-24T15:20:54.543Z,1.53
2023-09-24T15:23:22.032Z,1.50
2023-09-24T15:25:50.119Z,1.80
2023-09-24T15:28:17.989Z,1.20
2023-09-24T15:30:47.515Z,1.50
2023-09-24T15:33:15.579Z,1.87
2023-09-24T15:35:42.455Z,1.73
2023-09-24T15:38:11.277Z,1.50
2023-09-24T15:40:39.463Z,1.43
2023-09-24T15:43:07.930Z,1.53
2023-09-24T15:45:35.320Z,1.50
2023-09-24T15:48:05.228Z,1.70
2023-09-24T15:50:33.340Z,1.53
2023-09-24T15:53:00.335Z,1.30
2023-09-24T15:55:28.977Z,1.27
2023-09-24T15:57:56.016Z,1.50
2023-09-24T16:00:23.825Z,1.30
2023-09-24T16:02:51.066Z,1.23
2023-09-24T16:05:18.446Z,1.60
2023-09-24T16:07:45.504Z,1.20
2023-09-24T16:10:12.300Z,1.43
2023-09-24T16:12:39.139Z,1.20
2023-09-24T16:15:06.998Z,1.33
2023-09-24T16:17:33.933Z,1.30
2023-09-24T16:20:01.332Z,1.47
2023-09-24T16:22:28.321Z,1.33
2023-09-24T16:24:55.155Z,1.40
2023-09-24T16:27:23.389Z,1.30
2023-09-24T16:29:51.837Z,1.40
2023-09-24T16:32:19.333Z,1.60
2023-09-24T16:34:49.282Z,1.50
2023-09-24T16:37:16.222Z,1.47
2023-09-24T16:39:43.149Z,1.33
2023-09-24T16:42:10.255Z,1.63
2023-09-24T16:44:37.126Z,1.63
2023-09-24T16:47:06.537Z,1.50
2023-09-24T16:49:34.009Z,1.33
2023-09-24T16:52:01.354Z,1.17
2023-09-24T16:54:28.507Z,1.23
2023-09-24T16:56:56.205Z,1.30
2023-09-24T16:59:23.450Z,1.43
2023-09-24T17:01:52.437Z,1.40
2023-09-24T17:04:20.149Z,1.40
2023-09-24T17:06:47.416Z,1.33
2023-09-24T17:09:14.850Z,1.17
2023-09-24T17:11:43.094Z,1.20
2023-09-24T17:14:10.149Z,1.10
2023-09-24T17:16:36.891Z,1.10
2023-09-24T17:19:03.648Z,1.63
2023-09-24T17:21:30.490Z,1.40
2023-09-24T17:23:57.576Z,1.50
2023-09-24T17:26:24.740Z,1.60
2023-09-24T17:28:54.619Z,1.50
2023-09-24T17:31:21.858Z,1.30
2023-09-24T17:33:49.572Z,1.17
2023-09-24T17:36:19.662Z,1.20
2023-09-24T17:38:47.944Z,1.40
2023-09-24T17:41:16.378Z,1.50
2023-09-24T17:43:43.731Z,1.50
2023-09-24T17:46:16.685Z,1.30
2023-09-24T17:48:45.636Z,1.50
2023-09-24T17:51:13.191Z,1.40
2023-09-24T17:53:41.171Z,1.37
2023-09-24T17:56:09.000Z,1.10
2023-09-24T17:58:36.135Z,1.43
2023-09-24T18:01:08.859Z,1.60
2023-09-24T18:03:36.493Z,1.30
2023-09-24T18:06:03.509Z,1.30
2023-09-24T18:08:32.159Z,1.57
2023-09-24T18:10:59.772Z,1.70
2023-09-24T18:13:27.031Z,1.20
2023-09-24T18:15:59.195Z,1.50
2023-09-24T18:18:28.454Z,1.37
2023-09-24T18:20:59.906Z,1.80
2023-09-24T18:23:28.889Z,1.43
2023-09-24T18:25:56.035Z,1.50
2023-09-24T18:28:22.856Z,1.70
2023-09-24T18:30:50.214Z,1.33
2023-09-24T18:33:17.238Z,1.50
2023-09-24T18:35:44.628Z,1.80
2023-09-24T18:38:12.030Z,2.60
2023-09-24T18:40:41.253Z,2.03
2023-09-24T18:43:08.338Z,2.10
2023-09-24T18:45:37.941Z,2.00
2023-09-24T18:48:05.951Z,1.90
2023-09-24T18:50:35.430Z,1.70
2023-09-24T18:53:02.263Z,1.70
2023-09-24T18:55:29.057Z,1.40
2023-09-24T18:57:55.928Z,1.50
2023-09-24T19:00:22.795Z,1.70
2023-09-24T19:02:50.012Z,1.70
2023-09-24T19:05:17.316Z,1.80
2023-09-24T19:07:44.303Z,1.60
2023-09-24T19:10:14.807Z,1.50
2023-09-24T19:12:45.403Z,1.50
2023-09-24T19:15:13.760Z,1.50
2023-09-24T19:17:40.902Z,1.60
2023-09-24T19:20:08.748Z,1.47
2023-09-24T19:22:35.982Z,1.60
2023-09-24T19:25:02.981Z,1.63
2023-09-24T19:27:30.032Z,1.60
2023-09-24T19:29:58.316Z,1.50
2023-09-24T19:32:28.934Z,1.70
2023-09-24T19:34:56.102Z,1.50
2023-09-24T19:37:23.339Z,1.70
2023-09-24T19:39:50.396Z,1.77
2023-09-24T19:42:17.324Z,1.87
2023-09-24T19:44:46.966Z,1.87
2023-09-24T19:47:16.670Z,1.93
2023-09-24T19:49:44.270Z,2.00
2023-09-24T19:52:11.154Z,1.73
2023-09-24T19:54:38.195Z,1.43
2023-09-24T19:57:05.135Z,1.57
2023-09-24T19:59:33.201Z,1.70
2023-09-24T20:01:59.976Z,1.33
2023-09-24T20:04:26.740Z,1.60
2023-09-24T20:06:53.627Z,1.40
2023-09-24T20:09:20.710Z,1.50
2023-09-24T20:11:47.597Z,1.63
2023-09-24T20:14:15.170Z,1.43
2023-09-24T20:16:42.495Z,1.30
2023-09-24T20:19:10.385Z,1.47
2023-09-24T20:21:37.718Z,1.40
2023-09-24T20:24:10.279Z,1.60
2023-09-24T20:26:43.208Z,1.60
2023-09-24T20:29:10.616Z,1.90
2023-09-24T20:31:37.929Z,2.00
2023-09-24T20:34:05.810Z,1.97
2023-09-24T20:36:33.626Z,1.80
2023-09-24T20:39:07.725Z,1.77
2023-09-24T20:41:36.210Z,1.63
2023-09-24T20:44:04.030Z,1.93
2023-09-24T20:46:40.966Z,1.37
2023-09-24T20:49:10.015Z,1.63
2023-09-24T20:51:37.196Z,1.67
2023-09-24T20:54:04.400Z,1.20
2023-09-24T20:56:31.372Z,1.40
2023-09-24T20:59:02.446Z,1.60
2023-09-24T21:01:29.327Z,1.63
2023-09-24T21:03:56.393Z,1.60
2023-09-24T21:06:23.349Z,1.40
2023-09-24T21:08:50.350Z,1.33
2023-09-24T21:11:17.213Z,1.73
2023-09-24T21:13:44.886Z,1.40
2023-09-24T21:16:11.686Z,1.40
2023-09-24T21:18:38.573Z,1.73
2023-09-24T21:21:05.331Z,1.60
2023-09-24T21:23:32.126Z,1.30
2023-09-24T21:26:06.045Z,1.53
2023-09-24T21:28:33.849Z,1.40
2023-09-24T21:31:07.935Z,1.40
2023-09-24T21:33:36.277Z,1.43
2023-09-24T21:36:04.892Z,1.60
2023-09-24T21:38:31.812Z,1.40
2023-09-24T21:40:58.904Z,1.30
2023-09-24T21:43:31.059Z,1.63
2023-09-24T21:46:02.834Z,1.30
2023-09-24T21:48:30.425Z,1.40
2023-09-24T21:50:57.447Z,1.57
2023-09-24T21:53:24.385Z,1.40
2023-09-24T21:55:51.361Z,1.60
2023-09-24T21:58:19.266Z,1.57
2023-09-24T22:00:46.162Z,1.40
2023-09-24T22:03:13.511Z,1.30
2023-09-24T22:05:42.402Z,1.20
2023-09-24T22:08:10.128Z,1.70
2023-09-24T22:10:36.980Z,1.33
2023-09-24T22:13:04.216Z,1.40
2023-09-24T22:15:31.129Z,1.30
2023-09-24T22:17:58.104Z,1.40
2023-09-24T22:20:25.000Z,1.57
2023-09-24T22:22:51.838Z,1.30
2023-09-24T22:25:18.642Z,1.40
2023-09-24T22:27:45.573Z,1.17
2023-09-24T22:30:14.745Z,1.43
2023-09-24T22:32:43.776Z,1.60
2023-09-24T22:35:13.127Z,1.17
2023-09-24T22:37:42.183Z,1.30
2023-09-24T22:40:11.000Z,1.50
2023-09-24T22:42:39.104Z,1.40
2023-09-24T22:45:07.755Z,1.20
2023-09-24T22:47:34.665Z,1.67
2023-09-24T22:50:01.585Z,1.40
2023-09-24T22:52:28.352Z,1.27
2023-09-24T22:54:55.128Z,1.57
2023-09-24T22:57:22.110Z,1.50
2023-09-24T22:59:48.879Z,1.20
2023-09-24T23:02:15.877Z,1.27
2023-09-24T23:04:42.654Z,1.23
2023-09-24T23:07:09.861Z,1.47
2023-09-24T23:09:37.206Z,1.40
2023-09-24T23:12:04.494Z,1.50
2023-09-24T23:14:31.290Z,1.20
2023-09-24T23:16:58.017Z,1.40
2023-09-24T23:19:25.014Z,1.50
2023-09-24T23:21:52.697Z,1.30
2023-09-24T23:24:19.496Z,1.30
2023-09-24T23:26:46.865Z,1.43
2023-09-24T23:29:14.247Z,1.37
2023-09-24T23:31:41.308Z,1.37
2023-09-24T23:34:10.148Z,1.40
2023-09-24T23:36:38.072Z,1.50
2023-09-24T23:39:13.246Z,1.40
2023-09-24T23:41:41.207Z,1.50
2023-09-24T23:44:09.224Z,1.30
2023-09-24T23:46:37.066Z,1.50
2023-09-24T23:49:04.004Z,1.40
2023-09-24T23:51:32.198Z,1.37
2023-09-24T23:54:01.678Z,1.20
2023-09-24T23:56:28.467Z,1.20
2023-09-24T23:58:55.243Z,1.50
